sensor_id;sensor_type;location;lat;lon;timestamp;P1;durP1;ratioP1;P2;durP2;ratioP2
25868;SDS011;13688;53.154;18.136;2023-04-08T00:03:19;43.65;;;28.45;;
25868;SDS011;13688;53.154;18.136;2023-04-08T00:08:42;46.58;;;28.67;;
25868;SDS011;13688;53.154;18.136;2023-04-08T00:14:04;41.98;;;28.15;;
25868;SDS011;13688;53.154;18.136;2023-04-08T00:19:27;47.53;;;28.60;;
25868;SDS011;13688;53.154;18.136;2023-04-08T00:24:49;43.08;;;27.07;;
25868;SDS011;13688;53.154;18.136;2023-04-08T00:30:12;36.28;;;23.70;;
25868;SDS011;13688;53.154;18.136;2023-04-08T00:35:35;35.30;;;22.87;;
25868;SDS011;13688;53.154;18.136;2023-04-08T00:40:57;33.80;;;22.02;;
25868;SDS011;13688;53.154;18.136;2023-04-08T00:46:20;34.15;;;21.05;;
25868;SDS011;13688;53.154;18.136;2023-04-08T00:51:44;34.05;;;19.98;;
25868;SDS011;13688;53.154;18.136;2023-04-08T00:57:07;30.97;;;19.90;;
25868;SDS011;13688;53.154;18.136;2023-04-08T01:08:24;30.50;;;19.55;;
25868;SDS011;13688;53.154;18.136;2023-04-08T01:13:49;31.82;;;19.07;;
25868;SDS011;13688;53.154;18.136;2023-04-08T01:19:23;29.67;;;19.07;;
25868;SDS011;13688;53.154;18.136;2023-04-08T01:24:49;29.32;;;18.25;;
25868;SDS011;13688;53.154;18.136;2023-04-08T01:30:21;27.93;;;17.50;;
25868;SDS011;13688;53.154;18.136;2023-04-08T01:35:50;26.48;;;16.42;;
25868;SDS011;13688;53.154;18.136;2023-04-08T01:41:13;24.75;;;15.50;;
25868;SDS011;13688;53.154;18.136;2023-04-08T01:46:37;23.45;;;15.32;;
25868;SDS011;13688;53.154;18.136;2023-04-08T01:52:02;23.20;;;15.03;;
25868;SDS011;13688;53.154;18.136;2023-04-08T01:57:30;25.10;;;14.65;;
25868;SDS011;13688;53.154;18.136;2023-04-08T02:02:54;19.25;;;13.60;;
25868;SDS011;13688;53.154;18.136;2023-04-08T02:08:18;21.00;;;13.65;;
25868;SDS011;13688;53.154;18.136;2023-04-08T02:13:42;20.48;;;13.15;;
25868;SDS011;13688;53.154;18.136;2023-04-08T02:19:10;18.87;;;12.15;;
25868;SDS011;13688;53.154;18.136;2023-04-08T02:24:39;18.80;;;11.10;;
25868;SDS011;13688;53.154;18.136;2023-04-08T02:30:02;24.87;;;11.45;;
25868;SDS011;13688;53.154;18.136;2023-04-08T02:35:27;16.80;;;11.50;;
25868;SDS011;13688;53.154;18.136;2023-04-08T02:40:51;18.20;;;12.07;;
25868;SDS011;13688;53.154;18.136;2023-04-08T02:46:14;20.82;;;11.73;;
25868;SDS011;13688;53.154;18.136;2023-04-08T02:51:36;19.10;;;12.10;;
25868;SDS011;13688;53.154;18.136;2023-04-08T02:56:59;16.97;;;11.43;;
25868;SDS011;13688;53.154;18.136;2023-04-08T03:02:21;18.50;;;11.78;;
25868;SDS011;13688;53.154;18.136;2023-04-08T03:07:44;16.60;;;11.03;;
25868;SDS011;13688;53.154;18.136;2023-04-08T03:13:06;20.05;;;12.68;;
25868;SDS011;13688;53.154;18.136;2023-04-08T03:18:29;17.65;;;12.35;;
25868;SDS011;13688;53.154;18.136;2023-04-08T03:23:51;18.05;;;11.28;;
25868;SDS011;13688;53.154;18.136;2023-04-08T03:29:14;19.00;;;13.15;;
25868;SDS011;13688;53.154;18.136;2023-04-08T03:34:37;18.77;;;12.43;;
25868;SDS011;13688;53.154;18.136;2023-04-08T03:39:59;18.00;;;11.95;;
25868;SDS011;13688;53.154;18.136;2023-04-08T03:45:22;17.75;;;12.53;;
25868;SDS011;13688;53.154;18.136;2023-04-08T03:50:45;19.75;;;13.25;;
25868;SDS011;13688;53.154;18.136;2023-04-08T03:56:07;19.05;;;12.73;;
25868;SDS011;13688;53.154;18.136;2023-04-08T04:01:30;17.02;;;11.95;;
25868;SDS011;13688;53.154;18.136;2023-04-08T04:06:53;19.52;;;12.65;;
25868;SDS011;13688;53.154;18.136;2023-04-08T04:12:16;19.52;;;11.88;;
25868;SDS011;13688;53.154;18.136;2023-04-08T04:17:39;16.70;;;11.30;;
25868;SDS011;13688;53.154;18.136;2023-04-08T04:23:05;17.27;;;12.15;;
25868;SDS011;13688;53.154;18.136;2023-04-08T04:28:28;18.65;;;12.03;;
25868;SDS011;13688;53.154;18.136;2023-04-08T04:33:52;21.42;;;12.73;;
25868;SDS011;13688;53.154;18.136;2023-04-08T04:39:15;16.07;;;11.20;;
25868;SDS011;13688;53.154;18.136;2023-04-08T04:44:38;17.30;;;11.63;;
25868;SDS011;13688;53.154;18.136;2023-04-08T04:50:01;18.80;;;12.15;;
25868;SDS011;13688;53.154;18.136;2023-04-08T04:55:24;17.82;;;11.68;;
25868;SDS011;13688;53.154;18.136;2023-04-08T05:00:47;19.00;;;12.18;;
25868;SDS011;13688;53.154;18.136;2023-04-08T05:06:09;17.57;;;12.18;;
25868;SDS011;13688;53.154;18.136;2023-04-08T05:11:34;18.07;;;12.40;;
25868;SDS011;13688;53.154;18.136;2023-04-08T05:16:56;17.52;;;12.53;;
25868;SDS011;13688;53.154;18.136;2023-04-08T05:22:18;17.55;;;12.30;;
25868;SDS011;13688;53.154;18.136;2023-04-08T05:27:40;21.30;;;13.38;;
25868;SDS011;13688;53.154;18.136;2023-04-08T05:33:04;22.65;;;13.83;;
25868;SDS011;13688;53.154;18.136;2023-04-08T05:38:28;20.85;;;13.53;;
25868;SDS011;13688;53.154;18.136;2023-04-08T05:43:51;21.68;;;14.35;;
25868;SDS011;13688;53.154;18.136;2023-04-08T05:49:14;20.82;;;13.50;;
25868;SDS011;13688;53.154;18.136;2023-04-08T05:54:36;20.27;;;14.15;;
25868;SDS011;13688;53.154;18.136;2023-04-08T05:59:59;21.77;;;14.65;;
25868;SDS011;13688;53.154;18.136;2023-04-08T06:05:23;22.40;;;14.98;;
25868;SDS011;13688;53.154;18.136;2023-04-08T06:10:49;24.45;;;14.30;;
25868;SDS011;13688;53.154;18.136;2023-04-08T06:16:13;23.25;;;15.10;;
25868;SDS011;13688;53.154;18.136;2023-04-08T06:21:36;26.95;;;15.88;;
25868;SDS011;13688;53.154;18.136;2023-04-08T06:27:00;23.35;;;16.02;;
25868;SDS011;13688;53.154;18.136;2023-04-08T06:32:23;21.42;;;15.10;;
25868;SDS011;13688;53.154;18.136;2023-04-08T06:37:45;21.62;;;14.35;;
25868;SDS011;13688;53.154;18.136;2023-04-08T06:43:08;22.00;;;14.73;;
25868;SDS011;13688;53.154;18.136;2023-04-08T06:48:31;18.82;;;13.98;;
25868;SDS011;13688;53.154;18.136;2023-04-08T06:53:54;21.75;;;13.83;;
25868;SDS011;13688;53.154;18.136;2023-04-08T06:59:16;19.73;;;13.62;;
25868;SDS011;13688;53.154;18.136;2023-04-08T07:04:39;21.55;;;13.95;;
25868;SDS011;13688;53.154;18.136;2023-04-08T07:10:01;17.27;;;12.07;;
25868;SDS011;13688;53.154;18.136;2023-04-08T07:15:25;18.62;;;13.45;;
25868;SDS011;13688;53.154;18.136;2023-04-08T07:20:50;19.87;;;13.83;;
25868;SDS011;13688;53.154;18.136;2023-04-08T07:26:13;20.20;;;14.33;;
25868;SDS011;13688;53.154;18.136;2023-04-08T07:31:36;18.52;;;14.40;;
25868;SDS011;13688;53.154;18.136;2023-04-08T07:36:59;20.32;;;14.05;;
25868;SDS011;13688;53.154;18.136;2023-04-08T07:42:21;19.10;;;13.08;;
25868;SDS011;13688;53.154;18.136;2023-04-08T07:47:44;15.55;;;12.35;;
25868;SDS011;13688;53.154;18.136;2023-04-08T07:53:09;20.25;;;12.82;;
25868;SDS011;13688;53.154;18.136;2023-04-08T07:58:33;17.45;;;13.38;;
25868;SDS011;13688;53.154;18.136;2023-04-08T08:03:57;16.25;;;12.33;;
25868;SDS011;13688;53.154;18.136;2023-04-08T08:09:22;17.65;;;13.18;;
25868;SDS011;13688;53.154;18.136;2023-04-08T08:14:46;15.93;;;12.18;;
25868;SDS011;13688;53.154;18.136;2023-04-08T08:20:12;17.57;;;13.53;;
25868;SDS011;13688;53.154;18.136;2023-04-08T08:25:36;21.45;;;15.60;;
25868;SDS011;13688;53.154;18.136;2023-04-08T08:31:01;20.12;;;14.43;;
25868;SDS011;13688;53.154;18.136;2023-04-08T08:36:26;21.80;;;15.53;;
25868;SDS011;13688;53.154;18.136;2023-04-08T08:41:51;18.12;;;13.28;;
25868;SDS011;13688;53.154;18.136;2023-04-08T08:47:16;22.15;;;14.65;;
25868;SDS011;13688;53.154;18.136;2023-04-08T08:52:52;19.95;;;14.93;;
25868;SDS011;13688;53.154;18.136;2023-04-08T08:58:13;19.00;;;14.60;;
25868;SDS011;13688;53.154;18.136;2023-04-08T09:03:36;16.62;;;12.93;;
25868;SDS011;13688;53.154;18.136;2023-04-08T09:09:13;20.00;;;14.80;;
25868;SDS011;13688;53.154;18.136;2023-04-08T09:14:39;22.33;;;16.87;;
25868;SDS011;13688;53.154;18.136;2023-04-08T09:20:25;17.53;;;13.90;;
25868;SDS011;13688;53.154;18.136;2023-04-08T09:25:50;15.90;;;12.60;;
25868;SDS011;13688;53.154;18.136;2023-04-08T09:31:22;18.70;;;14.17;;
25868;SDS011;13688;53.154;18.136;2023-04-08T09:36:50;21.33;;;16.47;;
25868;SDS011;13688;53.154;18.136;2023-04-08T09:42:13;22.07;;;16.93;;
25868;SDS011;13688;53.154;18.136;2023-04-08T09:47:43;22.63;;;17.30;;
25868;SDS011;13688;53.154;18.136;2023-04-08T09:53:34;23.57;;;16.57;;
25868;SDS011;13688;53.154;18.136;2023-04-08T09:58:58;18.73;;;13.87;;
25868;SDS011;13688;53.154;18.136;2023-04-08T10:04:26;18.83;;;13.70;;
25868;SDS011;13688;53.154;18.136;2023-04-08T10:09:56;19.35;;;14.23;;
25868;SDS011;13688;53.154;18.136;2023-04-08T10:20:49;19.57;;;15.75;;
25868;SDS011;13688;53.154;18.136;2023-04-08T10:26:31;20.62;;;15.15;;
25868;SDS011;13688;53.154;18.136;2023-04-08T10:31:55;76.20;;;53.93;;
25868;SDS011;13688;53.154;18.136;2023-04-08T10:37:32;20.60;;;15.50;;
25868;SDS011;13688;53.154;18.136;2023-04-08T10:42:58;20.60;;;14.80;;
25868;SDS011;13688;53.154;18.136;2023-04-08T10:48:26;22.50;;;15.93;;
25868;SDS011;13688;53.154;18.136;2023-04-08T10:53:54;22.40;;;15.50;;
25868;SDS011;13688;53.154;18.136;2023-04-08T10:59:26;18.50;;;14.18;;
25868;SDS011;13688;53.154;18.136;2023-04-08T11:04:53;24.00;;;17.40;;
25868;SDS011;13688;53.154;18.136;2023-04-08T11:10:16;20.45;;;14.98;;
25868;SDS011;13688;53.154;18.136;2023-04-08T11:15:40;18.73;;;14.58;;
25868;SDS011;13688;53.154;18.136;2023-04-08T11:21:13;15.53;;;11.97;;
25868;SDS011;13688;53.154;18.136;2023-04-08T11:26:38;21.60;;;15.17;;
25868;SDS011;13688;53.154;18.136;2023-04-08T11:32:02;14.33;;;11.95;;
25868;SDS011;13688;53.154;18.136;2023-04-08T11:37:26;17.48;;;12.75;;
25868;SDS011;13688;53.154;18.136;2023-04-08T11:42:56;15.00;;;11.53;;
25868;SDS011;13688;53.154;18.136;2023-04-08T11:48:27;15.58;;;11.93;;
25868;SDS011;13688;53.154;18.136;2023-04-08T11:53:52;23.37;;;19.10;;
25868;SDS011;13688;53.154;18.136;2023-04-08T11:59:16;15.43;;;12.13;;
25868;SDS011;13688;53.154;18.136;2023-04-08T12:04:41;14.13;;;11.80;;
25868;SDS011;13688;53.154;18.136;2023-04-08T12:10:07;14.07;;;11.30;;
25868;SDS011;13688;53.154;18.136;2023-04-08T12:15:31;13.70;;;11.12;;
25868;SDS011;13688;53.154;18.136;2023-04-08T12:20:55;14.00;;;11.10;;
25868;SDS011;13688;53.154;18.136;2023-04-08T12:26:27;15.30;;;10.75;;
25868;SDS011;13688;53.154;18.136;2023-04-08T12:31:53;13.48;;;10.70;;
25868;SDS011;13688;53.154;18.136;2023-04-08T12:37:15;16.48;;;11.48;;
25868;SDS011;13688;53.154;18.136;2023-04-08T12:42:39;11.73;;;10.35;;
25868;SDS011;13688;53.154;18.136;2023-04-08T12:48:02;12.35;;;10.08;;
25868;SDS011;13688;53.154;18.136;2023-04-08T12:53:24;10.48;;;9.38;;
25868;SDS011;13688;53.154;18.136;2023-04-08T12:58:46;11.73;;;10.30;;
25868;SDS011;13688;53.154;18.136;2023-04-08T13:04:09;11.83;;;10.10;;
25868;SDS011;13688;53.154;18.136;2023-04-08T13:09:32;11.43;;;10.23;;
25868;SDS011;13688;53.154;18.136;2023-04-08T13:14:55;13.38;;;10.03;;
25868;SDS011;13688;53.154;18.136;2023-04-08T13:20:21;11.50;;;9.25;;
25868;SDS011;13688;53.154;18.136;2023-04-08T13:25:44;12.47;;;9.55;;
25868;SDS011;13688;53.154;18.136;2023-04-08T13:31:07;23.12;;;18.17;;
25868;SDS011;13688;53.154;18.136;2023-04-08T13:36:30;12.20;;;9.73;;
25868;SDS011;13688;53.154;18.136;2023-04-08T13:41:53;12.45;;;8.98;;
25868;SDS011;13688;53.154;18.136;2023-04-08T13:47:16;10.28;;;8.28;;
25868;SDS011;13688;53.154;18.136;2023-04-08T13:52:40;10.60;;;9.50;;
25868;SDS011;13688;53.154;18.136;2023-04-08T13:58:03;11.35;;;9.23;;
25868;SDS011;13688;53.154;18.136;2023-04-08T14:03:26;10.68;;;8.85;;
25868;SDS011;13688;53.154;18.136;2023-04-08T14:08:50;10.23;;;8.48;;
25868;SDS011;13688;53.154;18.136;2023-04-08T14:14:13;10.28;;;8.68;;
25868;SDS011;13688;53.154;18.136;2023-04-08T14:19:36;10.50;;;8.45;;
25868;SDS011;13688;53.154;18.136;2023-04-08T14:24:58;11.38;;;8.50;;
25868;SDS011;13688;53.154;18.136;2023-04-08T14:30:21;9.10;;;6.90;;
25868;SDS011;13688;53.154;18.136;2023-04-08T14:35:44;8.45;;;6.80;;
25868;SDS011;13688;53.154;18.136;2023-04-08T14:41:08;8.13;;;7.20;;
25868;SDS011;13688;53.154;18.136;2023-04-08T14:46:31;8.95;;;7.70;;
25868;SDS011;13688;53.154;18.136;2023-04-08T14:51:55;8.20;;;7.30;;
25868;SDS011;13688;53.154;18.136;2023-04-08T14:57:17;9.33;;;8.03;;
25868;SDS011;13688;53.154;18.136;2023-04-08T15:02:40;7.73;;;6.93;;
25868;SDS011;13688;53.154;18.136;2023-04-08T15:08:04;7.95;;;7.12;;
25868;SDS011;13688;53.154;18.136;2023-04-08T15:13:27;9.13;;;8.20;;
25868;SDS011;13688;53.154;18.136;2023-04-08T15:18:49;29.00;;;24.27;;
25868;SDS011;13688;53.154;18.136;2023-04-08T15:24:12;8.05;;;7.17;;
25868;SDS011;13688;53.154;18.136;2023-04-08T15:29:35;8.00;;;7.20;;
25868;SDS011;13688;53.154;18.136;2023-04-08T15:34:57;8.38;;;7.58;;
25868;SDS011;13688;53.154;18.136;2023-04-08T15:40:20;7.08;;;6.37;;
25868;SDS011;13688;53.154;18.136;2023-04-08T15:45:43;7.35;;;6.65;;
25868;SDS011;13688;53.154;18.136;2023-04-08T15:51:06;7.47;;;6.70;;
25868;SDS011;13688;53.154;18.136;2023-04-08T15:56:29;7.95;;;7.12;;
25868;SDS011;13688;53.154;18.136;2023-04-08T16:01:52;8.58;;;7.30;;
25868;SDS011;13688;53.154;18.136;2023-04-08T16:07:15;8.00;;;7.20;;
25868;SDS011;13688;53.154;18.136;2023-04-08T16:12:39;8.03;;;7.22;;
25868;SDS011;13688;53.154;18.136;2023-04-08T16:18:02;7.85;;;7.05;;
25868;SDS011;13688;53.154;18.136;2023-04-08T16:23:25;8.40;;;7.50;;
25868;SDS011;13688;53.154;18.136;2023-04-08T16:28:47;8.53;;;7.42;;
25868;SDS011;13688;53.154;18.136;2023-04-08T16:34:10;8.33;;;7.50;;
25868;SDS011;13688;53.154;18.136;2023-04-08T16:39:33;7.35;;;6.62;;
25868;SDS011;13688;53.154;18.136;2023-04-08T16:44:56;8.55;;;7.53;;
25868;SDS011;13688;53.154;18.136;2023-04-08T16:50:19;8.30;;;7.50;;
25868;SDS011;13688;53.154;18.136;2023-04-08T16:55:41;8.05;;;6.50;;
25868;SDS011;13688;53.154;18.136;2023-04-08T17:01:10;7.90;;;7.10;;
25868;SDS011;13688;53.154;18.136;2023-04-08T17:06:33;7.63;;;6.77;;
25868;SDS011;13688;53.154;18.136;2023-04-08T17:11:57;82.82;;;65.28;;
25868;SDS011;13688;53.154;18.136;2023-04-08T17:17:20;9.50;;;7.63;;
25868;SDS011;13688;53.154;18.136;2023-04-08T17:22:43;9.55;;;7.42;;
25868;SDS011;13688;53.154;18.136;2023-04-08T17:28:05;9.53;;;8.43;;
25868;SDS011;13688;53.154;18.136;2023-04-08T17:33:28;9.95;;;8.18;;
25868;SDS011;13688;53.154;18.136;2023-04-08T17:38:51;12.60;;;8.85;;
25868;SDS011;13688;53.154;18.136;2023-04-08T17:44:13;12.88;;;10.30;;
25868;SDS011;13688;53.154;18.136;2023-04-08T17:49:35;14.60;;;11.45;;
25868;SDS011;13688;53.154;18.136;2023-04-08T17:54:58;18.10;;;12.95;;
25868;SDS011;13688;53.154;18.136;2023-04-08T18:00:22;15.03;;;10.60;;
25868;SDS011;13688;53.154;18.136;2023-04-08T18:05:45;13.03;;;10.38;;
25868;SDS011;13688;53.154;18.136;2023-04-08T18:11:07;11.53;;;9.70;;
25868;SDS011;13688;53.154;18.136;2023-04-08T18:16:30;12.82;;;9.78;;
25868;SDS011;13688;53.154;18.136;2023-04-08T18:21:53;13.88;;;10.90;;
25868;SDS011;13688;53.154;18.136;2023-04-08T18:27:15;16.07;;;12.20;;
25868;SDS011;13688;53.154;18.136;2023-04-08T18:32:37;19.00;;;14.07;;
25868;SDS011;13688;53.154;18.136;2023-04-08T18:38:00;13.58;;;10.88;;
25868;SDS011;13688;53.154;18.136;2023-04-08T18:43:22;13.93;;;9.70;;
25868;SDS011;13688;53.154;18.136;2023-04-08T18:48:45;13.03;;;10.15;;
25868;SDS011;13688;53.154;18.136;2023-04-08T18:54:08;15.30;;;10.13;;
25868;SDS011;13688;53.154;18.136;2023-04-08T18:59:30;12.83;;;9.70;;
25868;SDS011;13688;53.154;18.136;2023-04-08T19:04:54;13.37;;;10.07;;
25868;SDS011;13688;53.154;18.136;2023-04-08T19:10:17;15.43;;;11.43;;
25868;SDS011;13688;53.154;18.136;2023-04-08T19:15:41;19.50;;;12.35;;
25868;SDS011;13688;53.154;18.136;2023-04-08T19:21:04;20.10;;;13.03;;
25868;SDS011;13688;53.154;18.136;2023-04-08T19:26:26;20.83;;;14.13;;
25868;SDS011;13688;53.154;18.136;2023-04-08T19:31:48;15.43;;;11.63;;
25868;SDS011;13688;53.154;18.136;2023-04-08T19:37:11;19.12;;;13.68;;
25868;SDS011;13688;53.154;18.136;2023-04-08T19:42:38;17.52;;;12.63;;
25868;SDS011;13688;53.154;18.136;2023-04-08T19:48:04;18.73;;;12.30;;
25868;SDS011;13688;53.154;18.136;2023-04-08T19:53:26;18.73;;;13.25;;
25868;SDS011;13688;53.154;18.136;2023-04-08T19:58:49;20.88;;;13.90;;
25868;SDS011;13688;53.154;18.136;2023-04-08T20:04:13;22.10;;;13.80;;
25868;SDS011;13688;53.154;18.136;2023-04-08T20:09:35;25.82;;;18.85;;
25868;SDS011;13688;53.154;18.136;2023-04-08T20:14:58;34.95;;;24.35;;
25868;SDS011;13688;53.154;18.136;2023-04-08T20:20:22;37.08;;;25.75;;
25868;SDS011;13688;53.154;18.136;2023-04-08T20:25:45;38.05;;;24.85;;
25868;SDS011;13688;53.154;18.136;2023-04-08T20:31:08;47.15;;;29.72;;
25868;SDS011;13688;53.154;18.136;2023-04-08T20:36:31;44.00;;;27.75;;
25868;SDS011;13688;53.154;18.136;2023-04-08T20:41:53;40.23;;;26.87;;
25868;SDS011;13688;53.154;18.136;2023-04-08T20:47:16;44.53;;;29.55;;
25868;SDS011;13688;53.154;18.136;2023-04-08T20:52:38;46.92;;;29.77;;
25868;SDS011;13688;53.154;18.136;2023-04-08T20:58:01;45.45;;;29.70;;
25868;SDS011;13688;53.154;18.136;2023-04-08T21:03:24;42.38;;;27.82;;
25868;SDS011;13688;53.154;18.136;2023-04-08T21:08:47;42.65;;;27.55;;
25868;SDS011;13688;53.154;18.136;2023-04-08T21:14:09;40.55;;;26.57;;
25868;SDS011;13688;53.154;18.136;2023-04-08T21:19:33;37.93;;;24.95;;
25868;SDS011;13688;53.154;18.136;2023-04-08T21:24:56;36.63;;;24.70;;
25868;SDS011;13688;53.154;18.136;2023-04-08T21:30:18;41.68;;;26.10;;
25868;SDS011;13688;53.154;18.136;2023-04-08T21:35:41;39.73;;;25.00;;
25868;SDS011;13688;53.154;18.136;2023-04-08T21:41:03;38.10;;;24.25;;
25868;SDS011;13688;53.154;18.136;2023-04-08T21:46:26;33.78;;;23.07;;
25868;SDS011;13688;53.154;18.136;2023-04-08T21:51:49;35.28;;;23.20;;
25868;SDS011;13688;53.154;18.136;2023-04-08T21:57:11;33.80;;;22.00;;
25868;SDS011;13688;53.154;18.136;2023-04-08T22:02:33;33.28;;;21.50;;
25868;SDS011;13688;53.154;18.136;2023-04-08T22:07:56;36.30;;;21.87;;
25868;SDS011;13688;53.154;18.136;2023-04-08T22:13:18;31.48;;;21.90;;
25868;SDS011;13688;53.154;18.136;2023-04-08T22:18:41;32.05;;;21.93;;
25868;SDS011;13688;53.154;18.136;2023-04-08T22:24:03;29.30;;;20.40;;
25868;SDS011;13688;53.154;18.136;2023-04-08T22:29:27;31.05;;;20.70;;
25868;SDS011;13688;53.154;18.136;2023-04-08T22:34:49;34.55;;;22.50;;
25868;SDS011;13688;53.154;18.136;2023-04-08T22:40:11;31.77;;;21.15;;
25868;SDS011;13688;53.154;18.136;2023-04-08T22:45:35;37.33;;;25.45;;
25868;SDS011;13688;53.154;18.136;2023-04-08T22:50:57;34.55;;;23.22;;
25868;SDS011;13688;53.154;18.136;2023-04-08T22:56:20;36.33;;;24.35;;
25868;SDS011;13688;53.154;18.136;2023-04-08T23:01:42;36.05;;;23.47;;
25868;SDS011;13688;53.154;18.136;2023-04-08T23:07:05;36.77;;;23.22;;
25868;SDS011;13688;53.154;18.136;2023-04-08T23:12:27;35.33;;;22.95;;
25868;SDS011;13688;53.154;18.136;2023-04-08T23:17:50;38.28;;;24.43;;
25868;SDS011;13688;53.154;18.136;2023-04-08T23:23:13;39.50;;;25.30;;
25868;SDS011;13688;53.154;18.136;2023-04-08T23:28:35;33.13;;;22.20;;
25868;SDS011;13688;53.154;18.136;2023-04-08T23:33:58;35.92;;;22.48;;
25868;SDS011;13688;53.154;18.136;2023-04-08T23:39:20;38.25;;;23.92;;
25868;SDS011;13688;53.154;18.136;2023-04-08T23:44:45;37.42;;;24.45;;
25868;SDS011;13688;53.154;18.136;2023-04-08T23:50:08;34.75;;;23.52;;
25868;SDS011;13688;53.154;18.136;2023-04-08T23:55:31;38.60;;;25.62;;
